Terminal Aerodrome Forecast
Issued by NWS Memphis, TN

Home | Current Version | Previous Version | Text Only | Print | Product List | Glossary On
Versions: 1 2 3 4 5 6 7 8 9 10 11 12 13 14 15 16
000
FTUS44 KMEG 290144 AAA
TAFJBR
TAF AMD
KJBR 290144Z 2902/2924 21005KT P6SM VCTS SCT025CB BKN150
      TEMPO 2902/2906 VRB10KT 6SM SHRA BKN025
     FM290900 VRB10G15KT 4SM TSRA SCT009CB OVC015
     FM291400 26008KT P6SM BKN025
     FM291900 25010KT P6SM VCSH BKN035 BKN250=

USA.gov is the U.S. government's official web portal to all federal, state and local government web resources and services.